Time;durP1;ratioP1;P1;durP2;ratioP2;P2;SDS_P1;SDS_P2;PMS_P1;PMS_P2;Temp;Humidity;BMP_temperature;BMP_pressure;BME280_temperature;BME280_humidity;BME280_pressure;Samples;Min_cycle;Max_cycle;Signal;HPM_P1;HPM_P2
2021/01/02 00:01:37;;;;;;;59.83;24.08;;;4.30;94.80;;;;;;5006504;28;20042;-89
2021/01/02 00:04:08;;;;;;;48.45;24.08;;;4.30;94.80;;;;;;5005557;28;20435;-89
2021/01/02 00:06:51;;;;;;;46.78;23.42;;;4.30;94.80;;;;;;4979584;28;20028;-90
2021/01/02 00:09:20;;;;;;;48.30;24.88;;;4.30;94.80;;;;;;4987250;28;20038;-90
2021/01/02 00:12:27;;;;;;;45.95;23.88;;;4.30;94.80;;;;;;4973551;28;20118;-89
2021/01/02 00:15:05;;;;;;;46.08;23.23;;;4.30;94.80;;;;;;4933550;29;20039;-89
2021/01/02 00:17:36;;;;;;;46.53;23.02;;;4.30;94.80;;;;;;4971240;28;20118;-89
2021/01/02 00:20:06;;;;;;;47.13;24.30;;;4.30;94.80;;;;;;4973799;28;20030;-89
2021/01/02 00:22:40;;;;;;;46.95;23.80;;;4.30;94.80;;;;;;4968710;28;20105;-90
2021/01/02 00:25:12;;;;;;;46.22;24.13;;;4.30;94.80;;;;;;4985241;28;20073;-90
2021/01/02 00:27:55;;;;;;;47.70;23.92;;;4.30;94.80;;;;;;4997551;28;20031;-90
2021/01/02 00:30:45;;;;;;;46.88;24.33;;;4.30;94.80;;;;;;4966939;28;20113;-90
2021/01/02 00:33:20;;;;;;;48.30;25.25;;;4.30;94.80;;;;;;4974134;28;20049;-89
2021/01/02 00:35:49;;;;;;;48.22;24.63;;;4.30;94.80;;;;;;4974217;28;20081;-90
2021/01/02 00:38:19;;;;;;;51.72;26.33;;;4.30;94.80;;;;;;4974174;28;20081;-90
2021/01/02 00:40:45;;;;;;;46.22;24.85;;;4.30;94.90;;;;;;4973847;28;20038;-89
2021/01/02 00:43:10;;;;;;;50.30;24.88;;;4.30;94.80;;;;;;4974255;28;20031;-89
2021/01/02 00:45:36;;;;;;;51.92;26.25;;;4.30;94.80;;;;;;4973709;28;20387;-90
2021/01/02 00:48:03;;;;;;;49.40;25.15;;;4.30;94.80;;;;;;4974786;28;20475;-90
2021/01/02 00:50:29;;;;;;;52.00;26.92;;;4.30;94.80;;;;;;4974196;28;20029;-89
2021/01/02 00:53:01;;;;;;;45.97;24.67;;;4.30;94.80;;;;;;4974882;28;20027;-90
2021/01/02 00:55:58;;;;;;;54.63;25.40;;;4.30;94.80;;;;;;4967946;28;20045;-89
2021/01/02 00:59:14;;;;;;;47.13;24.17;;;4.30;94.80;;;;;;4966467;28;20050;-89
2021/01/02 01:01:45;;;;;;;47.40;24.48;;;4.20;94.70;;;;;;4996585;28;20054;-90
2021/01/02 01:04:39;;;;;;;48.00;24.63;;;4.20;94.80;;;;;;4971389;28;20034;-89
2021/01/02 01:07:07;;;;;;;49.10;25.38;;;4.20;94.80;;;;;;4971555;28;20502;-90
2021/01/02 01:09:37;;;;;;;59.53;25.17;;;4.20;94.80;;;;;;4973301;28;20035;-89
2021/01/02 01:12:02;;;;;;;48.28;24.33;;;4.20;94.80;;;;;;5000830;28;20050;-90
2021/01/02 01:14:30;;;;;;;46.35;25.30;;;4.20;94.80;;;;;;4973172;28;20034;-89
2021/01/02 01:17:00;;;;;;;46.17;24.27;;;4.20;94.80;;;;;;4968870;28;20066;-90
2021/01/02 01:19:28;;;;;;;45.88;23.70;;;4.20;94.80;;;;;;4966070;28;20369;-90
2021/01/02 01:21:58;;;;;;;47.92;25.08;;;4.20;94.80;;;;;;4973552;28;20537;-90
2021/01/02 01:24:46;;;;;;;45.40;25.15;;;4.20;94.80;;;;;;5004931;28;20395;-90
2021/01/02 01:27:28;;;;;;;43.70;23.88;;;4.20;94.80;;;;;;4971053;28;20041;-90
2021/01/02 01:30:01;;;;;;;49.40;24.83;;;4.20;94.80;;;;;;4976868;28;20023;-89
2021/01/02 01:32:28;;;;;;;47.83;25.65;;;4.20;94.80;;;;;;4982827;28;20039;-90
2021/01/02 01:34:59;;;;;;;46.17;24.65;;;4.10;94.80;;;;;;4957916;28;20043;-90
2021/01/02 01:37:28;;;;;;;44.10;23.30;;;4.10;94.80;;;;;;5002257;28;20026;-89
2021/01/02 01:39:54;;;;;;;45.28;25.20;;;4.10;94.80;;;;;;4966500;28;20062;-90
2021/01/02 01:42:36;;;;;;;41.97;24.00;;;4.10;94.80;;;;;;4970542;28;20090;-90
2021/01/02 01:45:20;;;;;;;46.08;24.67;;;4.20;94.80;;;;;;4967004;28;20047;-90
2021/01/02 01:48:04;;;;;;;42.92;24.83;;;4.20;94.80;;;;;;4967127;28;20039;-91
2021/01/02 01:51:05;;;;;;;46.22;24.92;;;4.10;94.80;;;;;;4974049;28;20022;-90
2021/01/02 01:53:58;;;;;;;47.03;24.65;;;4.10;94.80;;;;;;4973194;28;20500;-90
2021/01/02 01:56:41;;;;;;;45.72;24.88;;;4.10;94.80;;;;;;4988447;28;20081;-90
2021/01/02 01:59:23;;;;;;;44.65;23.65;;;4.10;94.80;;;;;;4977510;28;20050;-90
2021/01/02 02:01:56;;;;;;;44.88;24.20;;;4.10;94.80;;;;;;5000401;28;20128;-89
2021/01/02 02:04:55;;;;;;;45.42;24.30;;;4.10;94.80;;;;;;4987300;28;20038;-89
2021/01/02 02:07:38;;;;;;;46.65;24.27;;;4.10;94.70;;;;;;4969859;28;20554;-90
2021/01/02 02:10:04;;;;;;;45.72;24.20;;;4.10;94.80;;;;;;4975404;28;20487;-89
2021/01/02 02:12:34;;;;;;;46.92;24.27;;;4.10;94.70;;;;;;4977721;28;20367;-89
2021/01/02 02:15:00;;;;;;;48.15;23.83;;;4.10;94.70;;;;;;4975574;28;20038;-89
2021/01/02 02:17:47;;;;;;;43.10;23.98;;;4.10;94.70;;;;;;4974357;28;20106;-89
2021/01/02 02:20:18;;;;;;;43.10;23.70;;;4.10;94.70;;;;;;4970115;28;20519;-90
2021/01/02 02:22:44;;;;;;;42.90;22.25;;;4.10;95.00;;;;;;5002555;28;20117;-90
2021/01/02 02:25:15;;;;;;;48.28;25.83;;;4.10;94.70;;;;;;4976768;28;20062;-90
2021/01/02 02:27:43;;;;;;;46.15;23.48;;;4.00;94.70;;;;;;4984054;28;20030;-90
2021/01/02 02:30:17;;;;;;;47.58;23.60;;;4.00;94.70;;;;;;4975702;28;20428;-90
2021/01/02 02:32:47;;;;;;;44.72;24.75;;;4.00;94.70;;;;;;4975747;28;20107;-90
2021/01/02 02:35:16;;;;;;;41.92;23.77;;;4.00;94.70;;;;;;4991883;28;20035;-90
2021/01/02 02:37:52;;;;;;;51.85;26.35;;;4.00;94.70;;;;;;5006364;28;20027;-89
2021/01/02 02:40:20;;;;;;;42.92;24.42;;;4.00;94.70;;;;;;4974979;28;20027;-89
2021/01/02 02:42:58;;;;;;;42.17;24.10;;;4.00;94.70;;;;;;5008061;28;20045;-89
2021/01/02 02:45:25;;;;;;;44.72;25.08;;;4.00;94.70;;;;;;4971212;28;20031;-89
2021/01/02 02:47:55;;;;;;;49.05;25.77;;;4.00;94.70;;;;;;4992699;28;20471;-90
2021/01/02 02:50:27;;;;;;;43.33;24.65;;;3.90;94.70;;;;;;4971828;28;20094;-89
2021/01/02 02:53:09;;;;;;;44.40;24.40;;;3.90;94.70;;;;;;4975082;28;20037;-91
2021/01/02 02:55:36;;;;;;;47.28;25.67;;;3.90;94.70;;;;;;4974214;28;20549;-89
2021/01/02 02:58:02;;;;;;;45.00;25.65;;;3.90;94.70;;;;;;5008763;28;20498;-89
2021/01/02 03:00:28;;;;;;;41.00;24.58;;;3.90;94.70;;;;;;4990666;28;20134;-90
2021/01/02 03:02:53;;;;;;;48.13;26.15;;;3.90;94.70;;;;;;4975378;28;20066;-90
2021/01/02 03:05:19;;;;;;;47.80;26.00;;;3.90;94.70;;;;;;4971455;28;20239;-90
2021/01/02 03:07:47;;;;;;;50.47;27.45;;;3.90;94.70;;;;;;4977116;28;20062;-89
2021/01/02 03:10:15;;;;;;;47.78;27.63;;;3.90;94.70;;;;;;4975527;28;20110;-89
2021/01/02 03:12:45;;;;;;;45.17;26.77;;;3.90;94.60;;;;;;4974742;28;20061;-89
2021/01/02 03:15:12;;;;;;;45.85;25.95;;;3.90;94.70;;;;;;4974743;28;20042;-89
2021/01/02 03:17:42;;;;;;;48.38;27.33;;;3.90;94.60;;;;;;4976388;28;20051;-89
2021/01/02 03:20:09;;;;;;;47.72;26.52;;;3.90;94.60;;;;;;4990762;28;20035;-89
2021/01/02 03:22:35;;;;;;;46.70;26.48;;;3.90;94.60;;;;;;4976047;28;20027;-89
2021/01/02 03:25:00;;;;;;;44.70;26.52;;;3.90;94.60;;;;;;4971679;28;20035;-90
2021/01/02 03:27:26;;;;;;;41.05;25.48;;;3.90;94.60;;;;;;4974869;28;20058;-89
2021/01/02 03:29:51;;;;;;;52.28;27.48;;;3.90;94.60;;;;;;4969574;28;20027;-89
2021/01/02 03:32:17;;;;;;;43.28;25.48;;;3.90;94.60;;;;;;4974587;28;20027;-89
2021/01/02 03:34:42;;;;;;;52.20;26.65;;;3.90;94.60;;;;;;4966101;28;20123;-89
2021/01/02 03:37:08;;;;;;;43.95;26.48;;;3.90;94.50;;;;;;4967883;28;20035;-89
2021/01/02 03:39:34;;;;;;;45.80;27.73;;;3.90;94.60;;;;;;5002210;28;20023;-90
2021/01/02 03:41:59;;;;;;;44.78;23.77;;;3.90;94.60;;;;;;4974574;28;20026;-90
2021/01/02 03:44:25;;;;;;;51.85;28.13;;;3.90;94.60;;;;;;4971838;28;20090;-89
2021/01/02 03:46:50;;;;;;;47.03;25.90;;;3.90;94.60;;;;;;4989868;28;20487;-90
2021/01/02 03:49:16;;;;;;;48.25;28.50;;;3.90;94.60;;;;;;4974307;28;20122;-89
2021/01/02 03:51:41;;;;;;;51.13;27.67;;;3.90;94.60;;;;;;4973586;28;20026;-90
2021/01/02 03:54:07;;;;;;;46.28;27.13;;;3.90;94.50;;;;;;4969819;28;20491;-89
2021/01/02 03:56:33;;;;;;;48.22;26.80;;;3.90;94.50;;;;;;4974730;28;20058;-89
2021/01/02 03:58:58;;;;;;;49.97;28.08;;;3.90;94.50;;;;;;4974295;28;20118;-89
2021/01/02 04:01:24;;;;;;;46.00;27.13;;;3.80;94.50;;;;;;4972673;28;20039;-89
2021/01/02 04:03:49;;;;;;;46.42;26.23;;;3.80;94.50;;;;;;4973423;28;20506;-89
2021/01/02 04:06:23;;;;;;;47.13;28.33;;;3.80;94.50;;;;;;4974065;28;20050;-90
2021/01/02 04:08:48;;;;;;;46.63;25.73;;;3.80;94.50;;;;;;4988920;28;20030;-89
2021/01/02 04:11:14;;;;;;;48.55;28.88;;;3.80;94.50;;;;;;4998316;28;20019;-89
2021/01/02 04:13:39;;;;;;;49.63;28.27;;;3.80;94.50;;;;;;4972828;28;20038;-90
2021/01/02 04:16:05;;;;;;;48.15;27.45;;;3.70;94.50;;;;;;4998571;28;20018;-90
2021/01/02 04:18:30;;;;;;;50.40;28.17;;;3.70;94.40;;;;;;4971784;28;20031;-90
2021/01/02 04:20:56;;;;;;;48.47;26.63;;;3.70;94.40;;;;;;4989665;28;20097;-89
2021/01/02 04:23:21;;;;;;;46.83;25.92;;;3.70;94.40;;;;;;4973354;28;20031;-91
2021/01/02 04:25:47;;;;;;;46.83;25.70;;;3.70;94.40;;;;;;4969746;28;20118;-90
2021/01/02 04:28:12;;;;;;;46.25;27.67;;;3.70;94.40;;;;;;4971489;28;20031;-89
2021/01/02 04:30:38;;;;;;;44.50;26.52;;;3.70;94.40;;;;;;5004732;28;20397;-89
2021/01/02 04:33:04;;;;;;;49.50;27.42;;;3.70;94.40;;;;;;4973474;28;20058;-89
2021/01/02 04:35:30;;;;;;;53.50;26.95;;;3.70;94.40;;;;;;5006633;28;20045;-90
2021/01/02 04:37:55;;;;;;;45.83;26.58;;;3.60;94.40;;;;;;4970532;28;20039;-89
2021/01/02 04:40:21;;;;;;;48.38;26.38;;;3.60;94.40;;;;;;4973816;28;20031;-90
2021/01/02 04:42:48;;;;;;;46.22;26.40;;;3.60;94.40;;;;;;4972717;28;20026;-89
2021/01/02 04:45:15;;;;;;;51.67;27.52;;;3.70;94.40;;;;;;4969355;28;20027;-91
2021/01/02 04:47:44;;;;;;;49.75;27.42;;;3.70;94.40;;;;;;4972996;28;20042;-89
2021/01/02 04:50:09;;;;;;;49.70;27.80;;;3.60;94.40;;;;;;4986684;28;20027;-90
2021/01/02 04:52:36;;;;;;;52.20;28.10;;;3.60;94.30;;;;;;4986607;28;20027;-90
2021/01/02 04:55:04;;;;;;;47.30;26.55;;;3.60;94.30;;;;;;4966282;28;20533;-90
2021/01/02 04:57:34;;;;;;;48.00;26.48;;;3.60;94.40;;;;;;5000333;28;20023;-89
2021/01/02 05:00:01;;;;;;;52.67;28.33;;;3.60;94.40;;;;;;4999804;28;20043;-89
2021/01/02 05:02:29;;;;;;;52.25;27.27;;;3.60;94.30;;;;;;4965041;28;20035;-89
2021/01/02 05:04:54;;;;;;;48.25;26.70;;;3.60;94.40;;;;;;4974549;28;20033;-90
2021/01/02 05:07:28;;;;;;;53.65;28.48;;;3.60;94.40;;;;;;4972919;28;20110;-90
2021/01/02 05:09:54;;;;;;;49.65;27.83;;;3.60;94.40;;;;;;4972610;28;20086;-89
2021/01/02 05:12:34;;;;;;;57.97;29.45;;;3.50;94.40;;;;;;5004568;28;20038;-90
2021/01/02 05:15:11;;;;;;;53.38;28.40;;;3.50;94.30;;;;;;4987457;28;20035;-89
2021/01/02 05:17:39;;;;;;;55.03;31.60;;;3.50;94.30;;;;;;5005746;28;20655;-89
2021/01/02 05:20:09;;;;;;;52.38;29.42;;;3.50;94.30;;;;;;5003011;28;20043;-90
2021/01/02 05:22:36;;;;;;;54.22;30.27;;;3.50;94.30;;;;;;4969891;28;20090;-89
2021/01/02 05:25:08;;;;;;;53.95;30.30;;;3.50;94.30;;;;;;4966400;28;20023;-89
2021/01/02 05:27:37;;;;;;;52.38;29.95;;;3.50;94.30;;;;;;4981668;28;20035;-90
2021/01/02 05:30:26;;;;;;;55.35;29.85;;;3.50;94.30;;;;;;4971982;28;20502;-90
2021/01/02 05:33:09;;;;;;;56.20;30.77;;;3.50;94.30;;;;;;4972611;28;20038;-90
2021/01/02 05:35:43;;;;;;;54.33;28.88;;;3.50;94.30;;;;;;4970325;28;20043;-90
2021/01/02 05:38:20;;;;;;;53.28;29.38;;;3.50;94.30;;;;;;4969719;28;20062;-90
2021/01/02 05:40:54;;;;;;;61.28;29.75;;;3.50;94.40;;;;;;4963166;28;20122;-90
2021/01/02 05:43:22;;;;;;;57.42;29.83;;;3.50;94.60;;;;;;4972656;28;20031;-89
2021/01/02 05:45:48;;;;;;;65.40;32.85;;;3.50;94.30;;;;;;4971659;28;20391;-89
2021/01/02 05:48:23;;;;;;;63.30;32.65;;;3.50;94.30;;;;;;4977018;28;20121;-89
2021/01/02 05:50:54;;;;;;;60.50;31.30;;;3.50;94.30;;;;;;4974324;28;20027;-90
2021/01/02 05:53:24;;;;;;;65.95;34.08;;;3.50;94.30;;;;;;4977325;28;20046;-90
2021/01/02 05:56:13;;;;;;;58.08;31.20;;;3.50;94.30;;;;;;4976148;28;20023;-90
2021/01/02 05:58:39;;;;;;;63.08;33.70;;;3.50;94.30;;;;;;4988757;28;20411;-89
2021/01/02 06:01:17;;;;;;;61.03;32.30;;;3.50;94.30;;;;;;4974500;28;20051;-90
2021/01/02 06:03:50;;;;;;;62.50;32.70;;;3.50;94.30;;;;;;4989012;28;20027;-89
2021/01/02 06:06:16;;;;;;;;;;;3.50;94.40;;;;;;4974542;28;20031;-89
2021/01/02 06:08:46;;;;;;;65.47;32.47;;;3.50;94.30;;;;;;4975294;28;19910;-89
2021/01/02 06:11:13;;;;;;;61.25;31.15;;;3.50;94.30;;;;;;4977405;28;20031;-90
2021/01/02 06:13:41;;;;;;;66.28;33.75;;;3.50;94.30;;;;;;4976724;28;20495;-90
2021/01/02 06:16:07;;;;;;;64.20;31.67;;;3.50;94.30;;;;;;5007442;28;20121;-90
2021/01/02 06:18:35;;;;;;;68.10;33.90;;;3.50;94.30;;;;;;4990825;28;20483;-90
2021/01/02 06:21:02;;;;;;;67.40;34.10;;;3.60;94.40;;;;;;4973587;28;20439;-89
2021/01/02 06:23:29;;;;;;;63.45;33.28;;;3.50;94.60;;;;;;4970854;28;20031;-89
2021/01/02 06:25:56;;;;;;;67.82;32.95;;;3.50;94.30;;;;;;4969579;28;20031;-90
2021/01/02 06:28:24;;;;;;;77.28;37.20;;;3.60;94.40;;;;;;4975622;28;20081;-89
2021/01/02 06:30:51;;;;;;;66.90;33.72;;;3.60;94.30;;;;;;4988590;28;20027;-90
2021/01/02 06:33:17;;;;;;;65.80;33.50;;;3.60;94.30;;;;;;4975529;28;20027;-90
2021/01/02 06:35:43;;;;;;;64.65;33.47;;;3.60;94.40;;;;;;4992997;28;20125;-91
2021/01/02 06:38:13;;;;;;;64.65;34.42;;;3.60;94.30;;;;;;4976513;28;20058;-91
2021/01/02 06:40:47;;;;;;;65.00;32.65;;;3.60;94.30;;;;;;5009411;28;20035;-91
2021/01/02 06:43:24;;;;;;;70.05;35.30;;;3.60;94.30;;;;;;4976455;28;20031;-91
2021/01/02 06:45:58;;;;;;;66.88;34.05;;;3.60;94.30;;;;;;4975702;28;20054;-91
2021/01/02 06:48:24;;;;;;;71.35;33.90;;;3.60;94.30;;;;;;4976098;28;20475;-91
2021/01/02 06:50:54;;;;;;;68.38;34.90;;;3.60;94.30;;;;;;4976717;28;20031;-91
2021/01/02 06:53:28;;;;;;;72.93;36.90;;;3.60;94.30;;;;;;4984377;28;20038;-91
2021/01/02 06:56:06;;;;;;;75.45;35.17;;;3.60;94.30;;;;;;4974910;28;20034;-90
2021/01/02 06:58:35;;;;;;;69.68;35.05;;;3.60;94.30;;;;;;4976754;28;20027;-91
2021/01/02 07:01:06;;;;;;;74.47;34.33;;;3.60;94.30;;;;;;4974812;28;20423;-91
2021/01/02 07:03:45;;;;;;;71.60;34.78;;;3.60;94.20;;;;;;4974190;28;20031;-91
2021/01/02 07:06:21;;;;;;;71.95;34.75;;;3.60;94.30;;;;;;4968855;28;20031;-91
2021/01/02 07:08:49;;;;;;;67.65;34.67;;;3.60;94.30;;;;;;4978980;28;20027;-92
2021/01/02 07:11:26;;;;;;;67.10;33.97;;;3.60;94.30;;;;;;5000996;28;20035;-92
2021/01/02 07:16:43;;;;;;;74.90;35.42;;;3.60;94.30;;;;;;4976613;28;20395;-91
2021/01/02 07:19:26;;;;;;;75.57;35.42;;;3.60;94.30;;;;;;4974016;28;20027;-91
2021/01/02 07:21:58;;;;;;;70.13;35.63;;;3.60;94.20;;;;;;4973633;28;20117;-91
2021/01/02 07:24:25;;;;;;;65.90;33.67;;;3.60;94.20;;;;;;4974035;28;20445;-91
2021/01/02 07:27:05;;;;;;;73.15;36.03;;;3.60;94.20;;;;;;4972376;28;20043;-91
2021/01/02 07:29:41;;;;;;;78.07;37.33;;;3.60;94.20;;;;;;4968468;28;20038;-91
2021/01/02 07:32:15;;;;;;;71.45;34.45;;;3.60;94.30;;;;;;4971064;28;20054;-91
2021/01/02 07:34:45;;;;;;;77.85;37.22;;;3.60;94.30;;;;;;4967255;28;20066;-91
2021/01/02 07:37:12;;;;;;;74.85;36.13;;;3.60;94.30;;;;;;4968357;28;20065;-91
2021/01/02 07:39:39;;;;;;;71.45;35.15;;;3.60;94.30;;;;;;4973837;28;20023;-91
2021/01/02 07:42:10;;;;;;;71.38;35.72;;;3.60;94.30;;;;;;4973390;28;20042;-91
2021/01/02 07:44:38;;;;;;;75.00;38.40;;;3.60;94.30;;;;;;4984006;28;20031;-92
2021/01/02 07:47:04;;;;;;;76.82;37.30;;;3.60;94.30;;;;;;4991149;28;20027;-91
2021/01/02 07:49:29;;;;;;;74.15;36.42;;;3.60;94.30;;;;;;4979696;28;20027;-91
2021/01/02 07:51:55;;;;;;;79.47;37.28;;;3.60;94.30;;;;;;4971751;28;20079;-90
2021/01/02 07:54:47;;;;;;;73.30;35.05;;;3.60;94.30;;;;;;4967967;28;20065;-91
2021/01/02 07:57:25;;;;;;;70.22;34.28;;;3.70;94.30;;;;;;4980344;28;20387;-91
2021/01/02 07:59:54;;;;;;;72.18;33.30;;;3.60;94.20;;;;;;4967851;28;20538;-91
2021/01/02 08:02:24;;;;;;;72.97;35.35;;;3.60;94.30;;;;;;4969427;28;20511;-90
2021/01/02 08:04:52;;;;;;;75.13;35.50;;;3.60;94.30;;;;;;4969326;28;20037;-91
2021/01/02 08:07:18;;;;;;;75.97;36.78;;;3.60;94.20;;;;;;4966737;28;20113;-91
2021/01/02 08:09:44;;;;;;;78.20;36.78;;;3.70;94.20;;;;;;4968348;28;20138;-90
2021/01/02 08:12:11;;;;;;;79.53;37.67;;;3.60;94.30;;;;;;4968679;28;20038;-90
2021/01/02 08:14:45;;;;;;;88.10;40.20;;;3.70;94.30;;;;;;4971437;28;20081;-92
2021/01/02 08:17:13;;;;;;;75.10;35.28;;;3.70;94.20;;;;;;4966589;28;20019;-90
2021/01/02 08:19:53;;;;;;;71.43;36.08;;;3.60;94.20;;;;;;4976336;28;20057;-92
2021/01/02 08:22:30;;;;;;;73.78;35.20;;;3.70;94.20;;;;;;4967731;28;20031;-91
2021/01/02 08:25:01;;;;;;;72.25;35.80;;;3.70;94.30;;;;;;4969575;28;20491;-91
2021/01/02 08:27:30;;;;;;;75.80;35.03;;;3.70;94.30;;;;;;4973693;28;20026;-92
2021/01/02 08:29:56;;;;;;;76.07;35.92;;;3.70;94.30;;;;;;4978046;28;20083;-92
2021/01/02 08:32:24;;;;;;;86.25;38.38;;;3.70;94.30;;;;;;4973470;28;20027;-92
2021/01/02 08:34:50;;;;;;;89.75;38.63;;;3.80;94.20;;;;;;4971114;28;20043;-90
2021/01/02 08:37:17;;;;;;;85.78;37.75;;;3.80;94.20;;;;;;4972249;28;20069;-91
2021/01/02 08:39:44;;;;;;;78.95;36.00;;;3.80;94.20;;;;;;4990807;28;20027;-90
2021/01/02 08:42:11;;;;;;;81.32;37.55;;;3.80;94.20;;;;;;4971708;28;20027;-92
2021/01/02 08:44:43;;;;;;;83.85;38.67;;;3.80;94.30;;;;;;4980994;28;20035;-91
2021/01/02 08:47:09;;;;;;;86.75;37.30;;;3.80;94.20;;;;;;4968694;28;20154;-92
2021/01/02 08:49:41;;;;;;;92.03;38.13;;;3.70;94.20;;;;;;4978153;28;20511;-91
2021/01/02 08:52:14;;;;;;;85.93;37.63;;;3.70;94.20;;;;;;4989663;28;20026;-92
2021/01/02 08:54:39;;;;;;;86.40;39.08;;;3.70;94.30;;;;;;4984978;28;20035;-92
2021/01/02 08:57:25;;;;;;;87.20;40.00;;;3.70;94.20;;;;;;4990552;28;20043;-92
2021/01/02 08:59:51;;;;;;;78.97;35.78;;;3.70;94.20;;;;;;4962790;28;20046;-92
2021/01/02 09:02:17;;;;;;;84.22;38.30;;;3.70;94.20;;;;;;4972540;28;20543;-92
2021/01/02 09:04:43;;;;;;;86.78;38.67;;;3.70;94.20;;;;;;4974856;28;20030;-92
2021/01/02 09:07:08;;;;;;;86.47;38.15;;;3.70;94.20;;;;;;4971303;28;20042;-92
2021/01/02 09:09:34;;;;;;;84.10;37.88;;;3.70;94.30;;;;;;4967559;28;20384;-92
2021/01/02 09:12:04;;;;;;;82.75;36.85;;;3.70;94.30;;;;;;4970406;28;20035;-92
2021/01/02 09:14:30;;;;;;;87.57;38.22;;;3.80;94.30;;;;;;4969255;28;20038;-93
2021/01/02 09:17:03;;;;;;;85.05;37.92;;;3.80;94.60;;;;;;4974487;28;20019;-93
2021/01/02 09:19:28;;;;;;;83.57;36.15;;;3.80;94.30;;;;;;4962747;28;20035;-92
2021/01/02 09:21:54;;;;;;;80.85;36.25;;;3.80;94.30;;;;;;4972661;28;20073;-91
2021/01/02 09:24:23;;;;;;;84.57;35.88;;;3.80;94.30;;;;;;4978122;28;20499;-90
2021/01/02 09:26:49;;;;;;;85.68;37.67;;;3.80;94.30;;;;;;4972544;28;20031;-91
2021/01/02 09:29:17;;;;;;;86.78;38.85;;;3.90;94.30;;;;;;4990181;28;20066;-94
2021/01/02 09:31:44;;;;;;;93.88;38.40;;;3.90;94.30;;;;;;4973898;28;20117;-92
2021/01/02 09:34:10;;;;;;;93.95;41.55;;;3.90;94.30;;;;;;4968434;28;20094;-92
2021/01/02 09:36:36;;;;;;;84.47;37.20;;;3.90;94.30;;;;;;4974349;28;20051;-92
2021/01/02 09:39:04;;;;;;;87.70;37.95;;;3.90;94.20;;;;;;4979030;28;20058;-92
2021/01/02 09:41:30;;;;;;;89.93;38.13;;;4.00;94.30;;;;;;4988506;28;20044;-92
2021/01/02 09:43:57;;;;;;;85.15;36.53;;;4.00;94.30;;;;;;4973534;28;20145;-92
2021/01/02 09:46:25;;;;;;;89.15;38.25;;;3.90;94.30;;;;;;4973639;28;20023;-91
2021/01/02 09:48:52;;;;;;;92.80;40.25;;;4.00;94.30;;;;;;4973651;28;20479;-91
2021/01/02 09:51:19;;;;;;;84.72;38.20;;;4.00;94.30;;;;;;4969648;28;20490;-92
2021/01/02 09:53:45;;;;;;;93.18;39.72;;;4.00;94.30;;;;;;4975111;28;20035;-89
2021/01/02 09:56:10;;;;;;;86.55;35.90;;;4.10;94.30;;;;;;4973151;28;20049;-91
2021/01/02 09:58:36;;;;;;;102.07;40.38;;;4.10;94.60;;;;;;4972857;28;20054;-92
2021/01/02 10:01:04;;;;;;;83.80;36.22;;;4.10;94.30;;;;;;4966135;28;20081;-90
2021/01/02 10:03:29;;;;;;;95.07;39.65;;;4.10;94.30;;;;;;4970151;28;20027;-91
2021/01/02 10:05:55;;;;;;;104.93;39.78;;;4.10;94.30;;;;;;4969543;28;20054;-91
2021/01/02 10:08:21;;;;;;;88.80;37.75;;;4.10;94.30;;;;;;4968728;28;20479;-92
2021/01/02 10:10:46;;;;;;;93.18;38.53;;;4.10;94.30;;;;;;4972808;28;20027;-92
2021/01/02 10:13:12;;;;;;;87.28;36.00;;;4.20;94.30;;;;;;4973704;28;20109;-91
2021/01/02 10:15:37;;;;;;;102.75;40.03;;;4.20;94.30;;;;;;4972095;28;20023;-91
2021/01/02 10:18:03;;;;;;;92.68;39.92;;;4.20;94.30;;;;;;4989518;28;20038;-92
2021/01/02 10:20:30;;;;;;;95.15;38.90;;;4.10;94.20;;;;;;4967453;28;20062;-90
2021/01/02 10:22:55;;;;;;;105.40;40.17;;;4.10;94.20;;;;;;4973312;28;20474;-90
2021/01/02 10:25:21;;;;;;;103.35;38.53;;;4.10;94.20;;;;;;4999068;28;20033;-92
2021/01/02 10:27:47;;;;;;;98.28;38.72;;;4.10;94.20;;;;;;4971701;28;20031;-91
2021/01/02 10:30:14;;;;;;;91.57;38.03;;;4.00;94.30;;;;;;4970158;28;20035;-91
2021/01/02 10:32:40;;;;;;;92.55;38.40;;;4.10;94.40;;;;;;4986559;28;20113;-92
2021/01/02 10:35:08;;;;;;;94.68;36.55;;;4.10;94.40;;;;;;4973403;28;20391;-91
2021/01/02 10:37:34;;;;;;;96.80;38.33;;;4.20;94.40;;;;;;4973642;28;20078;-91
2021/01/02 10:40:00;;;;;;;97.45;38.03;;;4.30;94.40;;;;;;4971065;28;20133;-87
2021/01/02 10:42:28;;;;;;;92.78;38.30;;;4.40;94.30;;;;;;4988591;28;20023;-91
2021/01/02 10:44:54;;;;;;;91.30;37.63;;;4.50;94.20;;;;;;4973528;28;20058;-91
2021/01/02 10:47:23;;;;;;;100.43;37.75;;;4.50;94.10;;;;;;4970968;28;20491;-92
2021/01/02 10:49:49;;;;;;;99.50;38.00;;;4.50;94.10;;;;;;4969070;28;20035;-92
2021/01/02 10:52:16;;;;;;;94.95;37.85;;;4.50;94.00;;;;;;4970450;28;20081;-91
2021/01/02 10:54:43;;;;;;;101.75;37.33;;;4.40;94.00;;;;;;4984136;28;20058;-90
2021/01/02 10:57:09;;;;;;;97.45;37.30;;;4.50;94.00;;;;;;4968575;28;20238;-90
2021/01/02 10:59:35;;;;;;;98.25;37.63;;;4.40;94.00;;;;;;4972109;28;20122;-89
2021/01/02 11:02:00;;;;;;;84.25;34.28;;;4.40;94.00;;;;;;5004567;28;20030;-91
2021/01/02 11:04:27;;;;;;;88.07;35.35;;;4.50;94.10;;;;;;4986945;28;20058;-91
2021/01/02 11:06:54;;;;;;;91.60;34.60;;;4.50;94.10;;;;;;4974803;28;20025;-91
2021/01/02 11:09:21;;;;;;;84.32;34.40;;;4.50;94.10;;;;;;4973820;28;20034;-91
2021/01/02 11:11:47;;;;;;;86.15;36.03;;;4.50;94.10;;;;;;4973130;28;20548;-92
2021/01/02 11:14:13;;;;;;;100.22;36.65;;;4.50;94.10;;;;;;4973190;28;20062;-94
2021/01/02 11:16:44;;;;;;;91.43;36.80;;;4.50;94.20;;;;;;4986934;28;20050;-92
2021/01/02 11:19:14;;;;;;;83.40;33.72;;;4.60;94.20;;;;;;4972133;28;20143;-89
2021/01/02 11:21:40;;;;;;;85.45;34.13;;;4.60;94.10;;;;;;4968138;28;20045;-91
2021/01/02 11:24:07;;;;;;;86.30;33.13;;;4.60;94.00;;;;;;4982935;28;20499;-91
2021/01/02 11:26:33;;;;;;;83.07;32.15;;;4.60;94.00;;;;;;4970351;28;20049;-91
2021/01/02 11:29:02;;;;;;;85.03;32.15;;;4.60;94.10;;;;;;4973155;28;20027;-91
2021/01/02 11:31:33;;;;;;;75.95;30.10;;;4.60;94.10;;;;;;4972001;28;20046;-91
2021/01/02 11:33:59;;;;;;;85.53;32.53;;;4.60;94.10;;;;;;4980178;28;20031;-92
2021/01/02 11:36:25;;;;;;;92.00;35.10;;;4.50;94.00;;;;;;4970850;28;20035;-91
2021/01/02 11:38:52;;;;;;;83.93;35.05;;;4.50;94.00;;;;;;4958678;28;20031;-91
2021/01/02 11:41:19;;;;;;;85.93;31.85;;;4.50;94.10;;;;;;4973379;28;20106;-90
2021/01/02 11:43:45;;;;;;;85.18;32.40;;;4.50;94.10;;;;;;4976190;28;20027;-91
2021/01/02 11:46:12;;;;;;;79.03;30.58;;;4.50;94.20;;;;;;4974728;28;20035;-90
2021/01/02 11:48:40;;;;;;;78.93;32.30;;;4.60;94.20;;;;;;4976775;28;20065;-91
2021/01/02 11:51:12;;;;;;;84.43;32.08;;;4.60;94.20;;;;;;4975802;28;20019;-90
2021/01/02 11:53:38;;;;;;;82.70;30.98;;;4.60;94.10;;;;;;4974392;28;20038;-90
2021/01/02 11:56:05;;;;;;;82.00;30.15;;;4.60;94.20;;;;;;4969403;28;20049;-90
2021/01/02 11:58:30;;;;;;;80.78;31.30;;;4.70;94.10;;;;;;4974324;28;20058;-91
2021/01/02 12:00:56;;;;;;;76.78;29.75;;;4.70;94.10;;;;;;4972672;28;20482;-91
2021/01/02 12:03:21;;;;;;;85.57;32.00;;;4.70;94.00;;;;;;4990849;28;20069;-91
2021/01/02 12:05:47;;;;;;;82.38;33.03;;;4.70;94.10;;;;;;4990526;28;20038;-90
2021/01/02 12:08:13;;;;;;;90.25;34.38;;;4.80;94.20;;;;;;4972088;28;20023;-92
2021/01/02 12:10:43;;;;;;;82.38;31.90;;;4.90;94.20;;;;;;4970834;28;20031;-92
2021/01/02 12:13:13;;;;;;;88.40;32.97;;;4.90;94.20;;;;;;4981808;28;20101;-92
2021/01/02 12:15:38;;;;;;;71.30;30.02;;;5.00;94.10;;;;;;4968113;28;20112;-92
2021/01/02 12:18:04;;;;;;;85.80;34.50;;;5.10;94.00;;;;;;4971209;28;20050;-93
2021/01/02 12:20:31;;;;;;;81.00;32.33;;;5.10;94.00;;;;;;4992507;28;20035;-93
2021/01/02 12:22:56;;;;;;;86.25;33.40;;;5.20;93.90;;;;;;4996869;28;20480;-91
2021/01/02 12:25:23;;;;;;;80.18;31.70;;;5.10;93.60;;;;;;4984253;28;20033;-92
2021/01/02 12:27:49;;;;;;;80.80;31.52;;;5.10;93.60;;;;;;4969716;28;20018;-92
2021/01/02 12:30:15;;;;;;;76.60;31.17;;;5.00;93.60;;;;;;4969651;28;20034;-91
2021/01/02 12:32:41;;;;;;;88.03;34.45;;;4.90;93.60;;;;;;4971018;28;20051;-91
2021/01/02 12:35:07;;;;;;;89.30;34.70;;;4.80;93.60;;;;;;4971020;28;20470;-92
2021/01/02 12:37:32;;;;;;;79.70;31.88;;;4.80;93.70;;;;;;4969772;28;20118;-91
2021/01/02 12:39:58;;;;;;;83.40;33.28;;;4.80;93.80;;;;;;4968778;28;20114;-92
2021/01/02 12:42:23;;;;;;;81.45;31.13;;;4.70;93.80;;;;;;4975055;28;20056;-92
2021/01/02 12:44:49;;;;;;;89.68;33.22;;;4.80;93.90;;;;;;5001307;28;20041;-92
2021/01/02 12:47:18;;;;;;;85.65;34.08;;;4.80;93.90;;;;;;4967659;28;20069;-92
2021/01/02 12:49:45;;;;;;;74.10;30.90;;;4.90;94.00;;;;;;4967722;28;20102;-92
2021/01/02 12:52:11;;;;;;;79.95;32.22;;;4.90;94.00;;;;;;4969871;28;20035;-91